Time;durP1;ratioP1;P1;durP2;ratioP2;P2;SDS_P1;SDS_P2;PMS_P1;PMS_P2;Temp;Humidity;BMP_temperature;BMP_pressure;BME280_temperature;BME280_humidity;BME280_pressure;Samples;Min_cycle;Max_cycle;Signal;HPM_P1;HPM_P2
2022/11/04 00:00:16;;;;;;;19.00;9.37;;;;;;;-141.28;100.00;49886.66;5113356;28;20316;-76
2022/11/04 00:02:43;;;;;;;21.40;9.90;;;;;;;-141.28;100.00;49745.34;5113435;28;20218;-76
2022/11/04 00:05:10;;;;;;;20.83;9.67;;;;;;;-141.28;100.00;49607.97;5112900;28;20214;-79
2022/11/04 00:12:23;;;;;;;17.73;10.67;;;;;;;-141.28;100.00;49611.91;5111815;28;20688;-76
2022/11/04 00:13:08;;;;;;;20.30;10.97;;;;;;;-141.28;100.00;49717.88;5113217;28;20195;-76
2022/11/04 00:18:21;;;;;;;18.20;9.30;;;;;;;-141.28;100.00;49651.16;5112819;28;20202;-78
2022/11/04 00:29:03;;;;;;;18.83;9.40;;;;;;;-141.28;100.00;49631.53;5113503;28;20335;-79
2022/11/04 00:34:18;;;;;;;20.47;9.70;;;;;;;-141.28;100.00;49639.38;5112938;28;20245;-76
2022/11/04 00:36:45;;;;;;;17.17;8.93;;;;;;;-141.28;100.00;49619.75;5114859;28;20202;-79
2022/11/04 00:39:12;;;;;;;14.93;9.00;;;;;;;-141.28;100.00;49584.44;5112548;28;20202;-79
2022/11/04 00:41:40;;;;;;;18.07;10.37;;;;;;;-141.28;100.00;49580.50;5112692;28;20206;-78
2022/11/04 00:44:07;;;;;;;21.13;10.97;;;;;;;-141.28;100.00;49578.56;5112257;28;20673;-77
2022/11/04 00:46:34;;;;;;;17.00;9.57;;;;;;;-141.28;100.00;49584.44;5111727;28;20207;-78
2022/11/04 00:49:01;;;;;;;17.77;10.47;;;;;;;-141.28;100.00;49598.16;5112168;28;20278;-77
2022/11/04 00:51:28;;;;;;;16.17;9.80;;;;;;;-141.28;100.00;49607.97;5102023;28;20736;-76
2022/11/04 00:53:56;;;;;;;20.07;11.27;;;;;;;-141.28;100.00;49594.25;5111174;28;20199;-75
2022/11/04 00:56:24;;;;;;;20.77;11.47;;;;;;;-141.28;100.00;49600.13;5113406;28;20195;-77
2022/11/04 00:58:53;;;;;;;22.57;11.83;;;;;;;-141.28;100.00;49619.75;5112041;28;20206;-76
2022/11/04 01:01:20;;;;;;;25.43;14.00;;;;;;;-141.28;100.00;49655.09;5112695;28;20195;-76
2022/11/04 01:03:49;;;;;;;27.27;11.97;;;;;;;-141.28;100.00;49713.94;5111686;28;20206;-76
2022/11/04 01:06:16;;;;;;;26.33;14.43;;;;;;;-141.28;100.00;49631.53;5112247;28;20675;-76
2022/11/04 01:08:44;;;;;;;26.30;13.57;;;;;;;-141.28;100.00;49619.75;5112199;28;20206;-77
2022/11/04 01:11:11;;;;;;;27.93;13.17;;;;;;;-141.28;100.00;49641.34;5112056;28;20227;-78
2022/11/04 01:13:39;;;;;;;23.67;12.63;;;;;;;-141.28;100.00;49666.84;5111327;28;20195;-78
2022/11/04 01:16:09;;;;;;;21.17;12.10;;;;;;;-141.28;100.00;49639.38;5111515;28;20244;-77
2022/11/04 01:18:37;;;;;;;27.90;13.17;;;;;;;-141.28;100.00;49625.66;5098162;28;20659;-78
2022/11/04 01:21:06;;;;;;;25.70;12.37;;;;;;;-141.28;100.00;49607.97;5111756;28;20212;-78
2022/11/04 01:23:35;;;;;;;28.83;12.13;;;;;;;-141.28;100.00;49607.97;5111822;28;20203;-79
2022/11/04 01:26:04;;;;;;;18.60;11.80;;;;;;;-141.28;100.00;49568.75;5111760;28;20199;-76
2022/11/04 01:28:31;;;;;;;27.87;12.00;;;;;;;-141.28;100.00;49562.84;5111818;28;20199;-77
2022/11/04 01:30:58;;;;;;;25.03;11.20;;;;;;;-141.28;100.00;49653.13;5111539;28;20230;-76
2022/11/04 01:33:26;;;;;;;17.30;10.53;;;;;;;-141.28;100.00;49604.06;5112035;28;20198;-80
2022/11/04 01:35:53;;;;;;;24.70;11.60;;;;;;;-141.28;100.00;49592.28;5111710;28;20207;-77
2022/11/04 01:38:20;;;;;;;19.43;10.93;;;;;;;-141.28;100.00;49660.97;5111855;28;20566;-77
2022/11/04 01:40:47;;;;;;;16.57;11.37;;;;;;;-141.28;100.00;49696.28;5111252;28;20272;-79
2022/11/04 01:43:16;;;;;;;25.30;11.60;;;;;;;-141.28;100.00;49745.34;5111328;28;20252;-78
2022/11/04 01:45:47;;;;;;;25.00;11.97;;;;;;;-141.28;100.00;49784.59;5104733;28;20199;-75
2022/11/04 01:48:17;;;;;;;16.87;10.87;;;;;;;-141.28;100.00;49753.19;5098516;28;20191;-77
2022/11/04 01:50:46;;;;;;;27.20;11.93;;;;;;;-141.28;100.00;49690.41;5111504;28;20325;-75
2022/11/04 01:53:16;;;;;;;20.57;11.43;;;;;;;-141.28;100.00;49694.31;5112753;28;20199;-76
2022/11/04 01:55:48;;;;;;;21.80;11.30;;;;;;;-141.28;100.00;49666.84;5111347;28;20199;-79
2022/11/04 01:58:18;;;;;;;20.33;11.23;;;;;;;-141.28;100.00;49662.94;5105459;28;20200;-77
2022/11/04 02:00:44;;;;;;;17.70;10.37;;;;;;;-141.28;100.00;49633.50;5103178;28;20278;-77
2022/11/04 02:03:17;;;;;;;20.20;11.00;;;;;;;-141.28;100.00;49625.66;5111921;28;20661;-76
2022/11/04 02:05:48;;;;;;;21.33;11.17;;;;;;;-141.28;100.00;49625.66;5111598;28;21210;-78
2022/11/04 02:08:17;;;;;;;25.03;11.67;;;;;;;-141.28;100.00;49627.59;5111752;28;20229;-79
2022/11/04 02:10:52;;;;;;;22.83;12.03;;;;;;;-141.28;100.00;49645.28;5118809;28;20337;-74
2022/11/04 02:13:18;;;;;;;19.23;11.83;;;;;;;-141.28;100.00;49592.28;5123521;28;20206;-76
2022/11/04 02:15:55;;;;;;;29.83;12.60;;;;;;;-141.28;100.00;49621.72;5116531;28;20230;-76
2022/11/04 02:18:42;;;;;;;24.03;12.90;;;;;;;-141.28;100.00;49633.50;5110695;28;20579;-77
2022/11/04 02:21:50;;;;;;;28.03;12.80;;;;;;;-141.28;100.00;49696.28;5098798;28;20293;-75
2022/11/04 02:24:48;;;;;;;26.70;14.83;;;;;;;-141.28;100.00;49761.06;5111286;28;20211;-77
2022/11/04 02:27:47;;;;;;;25.97;14.30;;;;;;;-141.28;100.00;49761.06;5111283;28;20323;-80
2022/11/04 02:30:21;;;;;;;25.53;14.10;;;;;;;-141.28;100.00;49741.44;5104514;28;20257;-77
2022/11/04 02:33:11;;;;;;;25.57;13.60;;;;;;;-141.28;100.00;49717.88;5114363;28;20194;-77
2022/11/04 02:35:50;;;;;;;30.40;13.73;;;;;;;-141.28;100.00;49706.09;5115114;28;20207;-79
2022/11/04 02:38:29;;;;;;;22.37;12.87;;;;;;;-141.28;100.00;49635.47;5116839;28;20203;-75
2022/11/04 02:41:06;;;;;;;26.33;12.50;;;;;;;-141.28;100.00;49643.31;5117052;28;20639;-79
2022/11/04 02:43:45;;;;;;;20.10;12.10;;;;;;;-141.28;100.00;49678.63;5117044;28;20696;-76
2022/11/04 02:46:18;;;;;;;25.83;13.37;;;;;;;-141.28;100.00;49692.38;5117971;28;20263;-77
2022/11/04 02:48:49;;;;;;;22.60;12.80;;;;;;;-141.28;100.00;49666.84;5109834;28;20203;-76
2022/11/04 02:51:22;;;;;;;20.23;12.70;;;;;;;-141.28;100.00;49586.41;5114402;28;21058;-76
2022/11/04 02:53:59;;;;;;;21.70;12.87;;;;;;;-141.28;100.00;49604.06;5113946;28;20232;-76
2022/11/04 02:56:29;;;;;;;31.63;14.17;;;;;;;-141.28;100.00;49631.53;5117259;28;20194;-78
2022/11/04 02:59:01;;;;;;;23.87;14.40;;;;;;;-141.28;100.00;49629.56;5117940;28;20282;-76
2022/11/04 03:01:34;;;;;;;27.03;14.03;;;;;;;-141.28;100.00;49639.38;5117065;28;20198;-77
2022/11/04 03:04:07;;;;;;;24.67;13.50;;;;;;;-141.28;100.00;49631.53;5117310;28;20199;-76
2022/11/04 03:06:37;;;;;;;27.63;15.30;;;;;;;-141.28;100.00;49627.59;5115857;28;20207;-79
2022/11/04 03:09:05;;;;;;;28.43;16.67;;;;;;;-141.28;100.00;49607.97;5114387;28;20199;-78
2022/11/04 03:11:32;;;;;;;30.37;16.47;;;;;;;-141.28;100.00;49560.88;5118495;28;20222;-76
2022/11/04 03:14:03;;;;;;;25.63;16.03;;;;;;;-141.28;100.00;49564.81;5114497;28;20199;-75
2022/11/04 03:16:37;;;;;;;24.53;15.87;;;;;;;-141.28;100.00;49558.94;5113984;28;20230;-79
2022/11/04 03:19:13;;;;;;;28.13;15.80;;;;;;;-141.28;100.00;49576.59;5114227;28;20214;-79
2022/11/04 03:21:46;;;;;;;27.47;15.23;;;;;;;-141.28;100.00;49531.44;5114532;28;20278;-75
2022/11/04 03:24:13;;;;;;;25.83;15.57;;;;;;;-141.28;100.00;49553.03;5116209;28;20207;-78
2022/11/04 03:26:46;;;;;;;27.83;15.87;;;;;;;-141.28;100.00;49517.72;5115437;28;20282;-76
2022/11/04 03:29:23;;;;;;;27.67;15.57;;;;;;;-141.28;100.00;49568.75;5117008;28;20218;-78
2022/11/04 03:32:02;;;;;;;26.00;15.83;;;;;;;-141.28;100.00;49523.59;5117338;28;20222;-76
2022/11/04 03:34:30;;;;;;;25.80;14.97;;;;;;;-141.28;100.00;49513.78;5115821;28;20210;-77
2022/11/04 03:36:57;;;;;;;26.40;15.43;;;;;;;-141.28;100.00;49490.25;5114401;28;20204;-77
2022/11/04 03:39:25;;;;;;;28.27;15.70;;;;;;;-141.28;100.00;49462.78;5113592;28;20746;-77
2022/11/04 03:41:56;;;;;;;25.43;15.57;;;;;;;-141.28;100.00;49431.38;5113598;28;20203;-77
2022/11/04 03:44:23;;;;;;;29.37;17.83;;;;;;;-141.28;100.00;49454.94;5113543;28;20251;-81
2022/11/04 03:46:52;;;;;;;28.60;17.30;;;;;;;-141.28;100.00;49399.97;5113851;28;20205;-78
2022/11/04 03:49:21;;;;;;;29.87;16.90;;;;;;;-141.28;100.00;49451.00;5113454;28;20759;-75
2022/11/04 03:51:48;;;;;;;43.80;16.73;;;;;;;-141.28;100.00;49439.22;5101758;28;20231;-80
2022/11/04 03:54:16;;;;;;;32.13;19.03;;;;;;;-141.28;100.00;49458.84;5113158;28;20206;-75
2022/11/04 03:57:02;;;;;;;35.03;17.50;;;;;;;-141.28;100.00;49462.78;5113097;28;20207;-75
2022/11/04 04:00:01;;;;;;;28.80;18.00;;;;;;;-141.28;100.00;49513.78;5113634;28;20195;-77
2022/11/04 04:02:39;;;;;;;34.20;19.60;;;;;;;-141.28;100.00;49478.47;5105507;28;20256;-78
2022/11/04 04:05:12;;;;;;;39.50;19.93;;;;;;;-141.28;100.00;49474.53;5110272;28;20205;-76
2022/11/04 04:07:44;;;;;;;28.83;17.50;;;;;;;-141.28;100.00;49447.06;5116020;28;20219;-76
2022/11/04 04:13:06;;;;;;;33.83;18.17;;;;;;;-141.28;100.00;49478.47;5113222;28;20661;-79
2022/11/04 04:15:43;;;;;;;36.40;19.10;;;;;;;-141.28;100.00;49443.16;5113440;28;20303;-76
2022/11/04 04:18:15;;;;;;;33.77;18.57;;;;;;;-141.28;100.00;49439.22;5112899;28;20199;-76
2022/11/04 04:20:46;;;;;;;31.20;18.30;;;;;;;-141.28;100.00;49403.91;5112940;28;20682;-78
2022/11/04 04:28:51;;;;;;;32.37;17.10;;;;;;;-141.28;100.00;49451.00;5113889;28;20213;-75
2022/11/04 04:34:01;;;;;;;32.83;16.33;;;;;;;-141.28;100.00;49443.16;5112386;27;20677;-77
2022/11/04 04:36:31;;;;;;;27.17;15.40;;;;;;;-141.28;100.00;49403.91;5113658;28;20199;-77
2022/11/04 04:47:20;;;;;;;27.10;15.00;;;;;;;-141.28;100.00;49396.06;5112714;28;20205;-76
2022/11/04 04:49:53;;;;;;;30.67;15.67;;;;;;;-141.28;100.00;49380.34;5112696;28;20666;-76
2022/11/04 04:52:22;;;;;;;28.50;15.67;;;;;;;-141.28;100.00;49364.66;5110786;28;20226;-79
2022/11/04 04:54:48;;;;;;;30.47;15.90;;;;;;;-141.28;100.00;49348.97;5111501;28;20202;-78
2022/11/04 04:57:16;;;;;;;28.03;16.13;;;;;;;-141.28;100.00;49343.06;5111744;28;20202;-76
2022/11/04 04:59:43;;;;;;;27.77;16.57;;;;;;;-141.28;100.00;49331.31;5112673;28;20195;-75
2022/11/04 05:02:10;;;;;;;31.93;16.27;;;;;;;-141.28;100.00;49352.88;5112151;28;20195;-76
2022/11/04 05:04:36;;;;;;;33.53;16.63;;;;;;;-141.28;100.00;49372.50;5112438;28;20199;-78
2022/11/04 05:07:08;;;;;;;34.00;19.90;;;;;;;-141.28;100.00;49374.47;5112215;28;20222;-79
2022/11/04 05:09:36;;;;;;;43.73;25.00;;;;;;;-141.28;100.00;49364.66;5112453;28;20256;-77
2022/11/04 05:12:02;;;;;;;43.70;27.73;;;;;;;-141.28;100.00;49398.03;5096218;28;20239;-77
2022/11/04 05:14:30;;;;;;;53.57;31.57;;;;;;;-141.28;100.00;49364.66;5110788;28;20203;-78
2022/11/04 05:16:58;;;;;;;61.73;34.13;;;;;;;-141.28;100.00;49403.91;5071495;28;20212;-76
2022/11/04 05:19:24;;;;;;;40.53;21.30;;;;;;;-141.28;100.00;49411.75;5072034;28;20212;-76
2022/11/04 05:21:52;;;;;;;42.63;21.20;;;;;;;-141.28;100.00;49415.69;5071373;28;20204;-75
2022/11/04 05:24:20;;;;;;;44.37;21.83;;;;;;;-141.28;100.00;49431.38;5058368;28;20270;-76
2022/11/04 05:26:47;;;;;;;41.90;19.93;;;;;;;-141.28;100.00;49431.38;5071155;28;20231;-76
2022/11/04 05:29:14;;;;;;;31.93;17.30;;;;;;;-141.28;100.00;49494.16;5071380;28;20257;-76
2022/11/04 05:31:43;;;;;;;30.73;18.70;;;;;;;-141.28;100.00;49531.44;5071169;28;20289;-78
2022/11/04 05:34:11;;;;;;;39.07;20.80;;;;;;;-141.28;100.00;49623.69;5071226;28;20226;-79
2022/11/04 05:36:38;;;;;;;29.70;16.80;;;;;;;-141.28;100.00;49713.94;5070816;28;20287;-75
2022/11/04 05:39:05;;;;;;;35.97;17.83;;;;;;;-141.28;100.00;49808.16;5071131;28;20209;-76
2022/11/04 05:41:34;;;;;;;30.30;17.23;;;;;;;-141.28;100.00;49867.03;5070895;28;20253;-77
2022/11/04 05:44:03;;;;;;;36.10;18.17;;;;;;;-141.28;100.00;49918.06;5071071;28;20212;-76
2022/11/04 05:46:30;;;;;;;34.53;18.07;;;;;;;-141.28;100.00;49896.47;5065888;28;20208;-76
2022/11/04 05:48:58;;;;;;;26.40;15.27;;;;;;;-141.28;100.00;49816.00;5064559;28;20611;-76
2022/11/04 05:51:26;;;;;;;27.77;15.87;;;;;;;-141.28;100.00;49704.13;5057965;28;20253;-77
2022/11/04 05:53:53;;;;;;;26.17;15.57;;;;;;;-141.28;100.00;49786.56;5069769;28;20204;-75
2022/11/04 05:56:21;;;;;;;27.67;14.70;;;;;;;-141.28;100.00;50493.13;5070774;28;20208;-77
2022/11/04 05:58:49;;;;;;;29.70;15.53;;;;;;;-141.28;100.00;50514.72;5070776;28;20287;-78
2022/11/04 06:01:31;;;;;;;31.37;15.30;;;;;;;-141.28;100.00;50408.72;5070106;28;20204;-74
2022/11/04 06:03:59;;;;;;;40.93;16.00;;;;;;;-141.28;100.00;50565.75;5070638;28;20201;-78
2022/11/04 06:06:28;;;;;;;36.67;14.63;;;;;;;-141.28;100.00;50275.25;5074072;28;20250;-76
2022/11/04 06:08:56;;;;;;;38.20;15.97;;;;;;;-141.28;100.00;50326.28;5074478;28;20663;-79
2022/11/04 06:11:23;;;;;;;40.67;15.73;;;;;;;-141.28;100.00;50393.03;5074286;28;20219;-76
2022/11/04 06:13:54;;;;;;;31.87;15.67;;;;;;;-141.28;100.00;50320.41;5074592;28;20200;-77
2022/11/04 06:16:21;;;;;;;36.57;16.03;;;;;;;-141.28;100.00;50375.34;5092009;28;20673;-76
2022/11/04 06:18:48;;;;;;;40.07;15.77;;;;;;;-141.28;100.00;50440.13;5114900;28;20207;-78
2022/11/04 06:21:25;;;;;;;40.00;17.17;;;;;;;-141.28;100.00;50459.75;5115002;28;20634;-76
2022/11/04 06:23:55;;;;;;;42.77;20.33;;;;;;;-141.28;100.00;50483.31;5114914;28;20634;-77
2022/11/04 06:26:24;;;;;;;40.07;20.17;;;;;;;-141.28;100.00;50526.50;5115145;28;20285;-78
2022/11/04 06:28:52;;;;;;;68.77;37.87;;;;;;;-141.28;100.00;50591.28;5114440;28;20239;-80
2022/11/04 06:31:20;;;;;;;30.27;19.93;;;;;;;-141.28;100.00;50247.78;5114806;28;20287;-80
2022/11/04 06:33:48;;;;;;;39.33;19.10;;;;;;;-141.28;100.00;50141.78;5114692;28;20203;-79
2022/11/04 06:36:16;;;;;;;50.00;20.27;;;;;;;-141.28;100.00;50149.63;5114931;28;20304;-77
2022/11/04 06:38:43;;;;;;;39.07;18.70;;;;;;;-141.28;100.00;50153.56;5114875;28;20836;-77
2022/11/04 06:41:13;;;;;;;36.60;20.37;;;;;;;-141.28;100.00;50212.44;5114638;28;20673;-75
2022/11/04 06:43:40;;;;;;;35.80;19.43;;;;;;;-141.28;100.00;50200.66;5114745;28;20203;-78
2022/11/04 06:46:24;;;;;;;32.07;17.50;;;;;;;-141.28;100.00;50200.66;5119240;28;20221;-75
2022/11/04 06:48:51;;;;;;;37.70;19.17;;;;;;;-141.28;100.00;50192.81;5120458;28;20191;-75
2022/11/04 06:51:19;;;;;;;36.80;17.83;;;;;;;-141.28;100.00;50228.16;5122705;28;20249;-74
2022/11/04 06:53:46;;;;;;;29.07;17.23;;;;;;;-141.28;100.00;50179.09;5120957;28;20195;-76
2022/11/04 06:56:13;;;;;;;34.23;16.80;;;;;;;-141.28;100.00;50122.16;5115902;28;20202;-75
2022/11/04 06:58:40;;;;;;;31.80;18.40;;;;;;;-141.28;100.00;50077.03;5114891;28;20218;-78
2022/11/04 07:01:08;;;;;;;39.63;18.80;;;;;;;-141.28;100.00;50106.47;5115055;28;20203;-78
2022/11/04 07:03:35;;;;;;;37.87;18.27;;;;;;;-141.28;100.00;50310.59;5116134;28;20234;-76
2022/11/04 07:06:07;;;;;;;34.23;18.80;;;;;;;-141.28;100.00;50510.78;5116381;28;20563;-77
2022/11/04 07:08:34;;;;;;;33.63;18.73;;;;;;;-141.28;100.00;50473.50;5114207;28;20218;-77
2022/11/04 07:11:02;;;;;;;31.93;19.00;;;;;;;-141.28;100.00;50526.50;5114597;28;20199;-78
2022/11/04 07:13:29;;;;;;;31.30;17.83;;;;;;;-141.28;100.00;50459.75;5114313;28;20202;-76
2022/11/04 07:15:56;;;;;;;33.17;18.73;;;;;;;-141.28;100.00;50471.53;5113329;28;20234;-77
2022/11/04 07:18:25;;;;;;;34.63;18.40;;;;;;;-141.28;100.00;50471.53;5114691;28;20191;-78
2022/11/04 07:20:52;;;;;;;45.97;19.27;;;;;;;-141.28;100.00;50408.72;5118667;28;20236;-74
2022/11/04 07:23:18;;;;;;;28.10;16.90;;;;;;;-141.28;100.00;50349.84;5115508;28;20208;-79
2022/11/04 07:25:45;;;;;;;33.60;17.60;;;;;;;-141.28;100.00;50249.75;5113903;28;20287;-78
2022/11/04 07:28:13;;;;;;;32.27;17.93;;;;;;;-141.28;100.00;50239.94;5113875;28;20203;-78
2022/11/04 07:30:40;;;;;;;30.57;18.50;;;;;;;-141.28;100.00;50298.81;5114140;28;20657;-76
2022/11/04 07:33:08;;;;;;;33.60;18.57;;;;;;;-141.28;100.00;50432.28;5113341;28;20275;-78
2022/11/04 07:35:38;;;;;;;32.03;18.17;;;;;;;-141.28;100.00;50424.44;5113653;28;20199;-77
2022/11/04 07:38:05;;;;;;;33.53;19.50;;;;;;;-141.28;100.00;50416.56;5113687;28;20205;-79
2022/11/04 07:40:34;;;;;;;35.47;19.37;;;;;;;-141.28;100.00;50400.88;5113753;28;20680;-77
2022/11/04 07:43:02;;;;;;;28.00;18.40;;;;;;;-141.28;100.00;50377.31;5113367;28;20298;-77
2022/11/04 07:45:28;;;;;;;35.37;18.03;;;;;;;-141.28;100.00;50369.47;5113476;28;20203;-75
2022/11/04 07:47:55;;;;;;;35.90;17.57;;;;;;;-141.28;100.00;50285.06;5113301;28;20206;-79
2022/11/04 07:50:22;;;;;;;34.53;17.50;;;;;;;-141.28;100.00;50381.25;5113258;28;20203;-80
2022/11/04 07:52:51;;;;;;;29.73;17.47;;;;;;;-141.28;100.00;50387.13;5111972;28;20238;-77
2022/11/04 07:55:18;;;;;;;33.07;18.30;;;;;;;-141.28;100.00;50236.00;5113080;28;20245;-80
2022/11/04 07:57:45;;;;;;;28.23;17.93;;;;;;;-141.28;100.00;50131.97;5113389;28;20256;-76
2022/11/04 08:00:15;;;;;;;31.37;18.20;;;;;;;-141.28;100.00;50112.34;5113192;28;20214;-75
2022/11/04 08:02:43;;;;;;;28.23;17.37;;;;;;;-141.28;100.00;50075.06;5113131;28;20679;-76
2022/11/04 08:05:10;;;;;;;30.57;18.73;;;;;;;-141.28;100.00;50141.78;5112660;28;20203;-77
2022/11/04 08:07:37;;;;;;;31.60;17.90;;;;;;;-141.28;100.00;50086.84;5113035;28;20230;-76
2022/11/04 08:10:08;;;;;;;29.63;17.90;;;;;;;-141.28;100.00;49965.16;5113091;28;20199;-79
2022/11/04 08:12:36;;;;;;;36.37;18.90;;;;;;;-141.28;100.00;49943.56;5113305;28;20222;-77
2022/11/04 08:15:05;;;;;;;35.03;17.27;;;;;;;-141.28;100.00;49884.69;5112961;28;20709;-79
2022/11/04 08:17:33;;;;;;;32.77;17.20;;;;;;;-141.28;100.00;49812.06;5113525;28;20211;-76
2022/11/04 08:19:59;;;;;;;27.90;16.87;;;;;;;-141.28;100.00;49662.94;5113038;28;20213;-77
2022/11/04 08:22:26;;;;;;;36.47;18.80;;;;;;;-141.28;100.00;49721.81;5113726;28;20207;-77
2022/11/04 08:24:53;;;;;;;27.07;17.90;;;;;;;-141.28;100.00;49747.31;5112558;28;20195;-78
2022/11/04 08:27:22;;;;;;;31.80;18.17;;;;;;;-141.28;100.00;49776.75;5112594;28;20199;-76
2022/11/04 08:29:49;;;;;;;32.83;18.07;;;;;;;-141.28;100.00;49892.53;5099865;28;20294;-76
2022/11/04 08:32:16;;;;;;;34.03;18.30;;;;;;;-141.28;100.00;49969.06;5112794;28;20227;-76
2022/11/04 08:34:44;;;;;;;31.90;17.23;;;;;;;-141.28;100.00;49933.75;5112713;28;20247;-76
2022/11/04 08:37:13;;;;;;;42.87;18.97;;;;;;;-141.28;100.00;49863.09;5112674;28;20217;-78
2022/11/04 08:39:41;;;;;;;36.37;18.47;;;;;;;-141.28;100.00;49974.97;5112830;28;20206;-76
2022/11/04 08:42:10;;;;;;;28.37;18.13;;;;;;;-141.28;100.00;49874.88;5098991;28;20231;-80
2022/11/04 08:44:39;;;;;;;32.13;16.93;;;;;;;-141.28;100.00;50110.38;5112126;28;20669;-77
2022/11/04 08:47:06;;;;;;;34.17;18.70;;;;;;;-141.28;100.00;50153.56;5111882;28;20289;-77
2022/11/04 08:49:38;;;;;;;39.13;18.57;;;;;;;-141.28;100.00;50067.22;5112457;28;20203;-75
2022/11/04 08:52:06;;;;;;;33.30;17.43;;;;;;;-141.28;100.00;50204.59;5110631;28;20297;-76
2022/11/04 08:54:33;;;;;;;35.60;17.27;;;;;;;-141.28;100.00;50169.28;5111894;28;20207;-77
2022/11/04 08:57:01;;;;;;;36.17;17.37;;;;;;;-141.28;100.00;50192.81;5098524;28;20263;-76
2022/11/04 08:59:28;;;;;;;32.73;17.83;;;;;;;-141.28;100.00;50184.97;5112733;28;20235;-77
2022/11/04 09:01:56;;;;;;;32.07;17.47;;;;;;;-141.28;100.00;50169.28;5098170;28;20252;-78
2022/11/04 09:04:24;;;;;;;33.07;17.73;;;;;;;-141.28;100.00;50161.41;5112111;28;20535;-76
2022/11/04 09:06:55;;;;;;;32.63;18.70;;;;;;;-141.28;100.00;50228.16;5111529;28;20222;-79
2022/11/04 09:09:21;;;;;;;28.93;18.17;;;;;;;-141.28;100.00;50177.13;5112002;28;20203;-77
2022/11/04 09:11:49;;;;;;;36.00;18.03;;;;;;;-141.28;100.00;50110.38;5111886;28;20199;-79
2022/11/04 09:14:16;;;;;;;29.43;16.57;;;;;;;-141.28;100.00;50045.63;5111827;28;20256;-77
2022/11/04 09:16:43;;;;;;;33.40;16.57;;;;;;;-141.28;100.00;49902.34;5111366;28;20226;-79
2022/11/04 09:19:12;;;;;;;38.50;17.67;;;;;;;-141.28;100.00;49749.28;5111472;28;20237;-76
2022/11/04 09:21:39;;;;;;;29.23;16.03;;;;;;;-141.28;100.00;49735.53;5111443;28;20199;-76
2022/11/04 09:24:07;;;;;;;29.93;15.60;;;;;;;-141.28;100.00;49690.41;5111429;28;20673;-77
2022/11/04 09:26:34;;;;;;;35.03;16.53;;;;;;;-141.28;100.00;49647.22;5112092;28;20638;-76
2022/11/04 09:29:01;;;;;;;27.33;16.27;;;;;;;-141.28;100.00;49580.50;5112195;28;20267;-77
2022/11/04 09:31:30;;;;;;;31.77;16.37;;;;;;;-141.28;100.00;49458.84;5100143;28;20633;-76
2022/11/04 09:34:00;;;;;;;30.87;17.03;;;;;;;-141.28;100.00;49419.59;5111536;28;20307;-75
2022/11/04 09:36:28;;;;;;;34.07;17.07;;;;;;;-141.28;100.00;49592.28;5111547;28;20260;-76
2022/11/04 09:38:56;;;;;;;31.00;15.97;;;;;;;-141.28;100.00;49364.66;5112874;28;20237;-77
2022/11/04 09:42:01;;;;;;;31.13;15.33;;;;;;;-141.28;100.00;49299.91;5111247;28;20205;-75
2022/11/04 09:44:36;;;;;;;24.40;15.33;;;;;;;-141.28;100.00;49313.66;5111449;28;20586;-75
2022/11/04 09:47:03;;;;;;;29.40;16.23;;;;;;;-141.28;100.00;49227.31;5111729;28;20210;-77
2022/11/04 09:49:37;;;;;;;31.63;16.80;;;;;;;-141.28;100.00;49231.22;5111523;28;20691;-76
2022/11/04 09:52:13;;;;;;;29.60;16.67;;;;;;;-141.28;100.00;49266.56;5110060;28;20224;-77
2022/11/04 09:54:48;;;;;;;31.53;16.63;;;;;;;-141.28;100.00;49339.16;5112410;28;20757;-76
2022/11/04 09:57:18;;;;;;;27.37;16.23;;;;;;;-141.28;100.00;49319.53;5111708;28;20202;-77
2022/11/04 09:59:47;;;;;;;23.67;14.77;;;;;;;-141.28;100.00;49250.84;5111645;28;20203;-79
2022/11/04 10:02:42;;;;;;;25.63;15.27;;;;;;;-141.28;100.00;49372.50;5111402;28;20647;-76
2022/11/04 10:05:23;;;;;;;37.70;15.43;;;;;;;-141.28;100.00;49176.28;5111490;28;20692;-76
2022/11/04 10:08:26;;;;;;;30.77;15.37;;;;;;;-141.28;100.00;49176.28;5111565;28;20225;-77
2022/11/04 10:11:05;;;;;;;25.60;14.83;;;;;;;-141.28;100.00;49160.59;5102933;28;20281;-78
2022/11/04 10:13:48;;;;;;;28.00;15.07;;;;;;;-141.28;100.00;49021.28;5111517;28;20230;-77
2022/11/04 10:16:39;;;;;;;27.57;15.00;;;;;;;-141.28;100.00;49038.94;5111380;28;20263;-77
2022/11/04 10:19:22;;;;;;;21.00;14.03;;;;;;;-141.28;100.00;49140.97;5111848;28;20210;-76
2022/11/04 10:22:02;;;;;;;24.97;13.50;;;;;;;-141.28;100.00;49139.00;5098204;28;20194;-77
2022/11/04 10:24:41;;;;;;;21.13;13.30;;;;;;;-141.28;100.00;49133.13;5109029;28;20200;-78
2022/11/04 10:27:16;;;;;;;21.33;13.70;;;;;;;-141.28;100.00;49097.81;5111355;28;20285;-77
2022/11/04 10:29:45;;;;;;;22.60;14.00;;;;;;;-141.28;100.00;49117.44;5111398;28;20195;-78
2022/11/04 10:32:16;;;;;;;26.20;14.13;;;;;;;-141.28;100.00;49117.44;5113042;28;20289;-74
2022/11/04 10:34:47;;;;;;;23.63;14.37;;;;;;;-141.28;100.00;49115.47;5113763;28;20276;-79
2022/11/04 10:37:14;;;;;;;26.33;14.57;;;;;;;-141.28;95.40;49054.66;5110891;28;20203;-75
2022/11/04 10:39:45;;;;;;;25.70;13.43;;;;;;;-141.28;94.82;49121.34;5110979;28;20694;-76
2022/11/04 10:42:14;;;;;;;22.90;13.47;;;;;;;-141.28;89.22;49089.97;5110814;28;20196;-77
2022/11/04 10:44:41;;;;;;;23.77;13.83;;;;;;;-141.28;88.47;49097.81;5110752;28;20203;-79
2022/11/04 10:47:21;;;;;;;21.57;13.80;;;;;;;-141.28;84.95;49074.25;5103001;28;20209;-75
2022/11/04 10:50:20;;;;;;;21.03;12.87;;;;;;;-141.28;85.79;49086.03;5107162;28;20212;-80
2022/11/04 10:52:47;;;;;;;20.70;13.27;;;;;;;-141.28;83.27;49091.91;5095219;28;20609;-79
2022/11/04 10:55:30;;;;;;;28.77;13.83;;;;;;;-141.28;82.02;49095.84;5114759;28;20204;-76
2022/11/04 10:57:58;;;;;;;25.90;13.17;;;;;;;-141.28;80.63;49072.31;5114851;28;20270;-76
2022/11/04 11:00:38;;;;;;;19.13;12.87;;;;;;;-141.28;76.85;49011.47;5114216;28;20202;-78
2022/11/04 11:03:24;;;;;;;19.17;12.17;;;;;;;-141.28;73.19;49042.88;5101424;28;20200;-78
2022/11/04 11:05:52;;;;;;;20.90;12.57;;;;;;;-141.28;72.42;49023.25;5102535;28;20255;-80
2022/11/04 11:08:30;;;;;;;24.53;12.47;;;;;;;-141.28;69.79;49596.22;5113950;28;20249;-77
2022/11/04 11:10:59;;;;;;;24.47;12.53;;;;;;;-141.28;71.52;49027.19;5114613;28;20202;-77
2022/11/04 11:13:28;;;;;;;20.77;13.50;;;;;;;-141.28;71.55;49060.53;5109792;28;20231;-76
2022/11/04 11:16:07;;;;;;;26.23;13.17;;;;;;;-141.28;74.40;49038.94;5105279;28;20235;-77
2022/11/04 11:18:36;;;;;;;20.60;13.03;;;;;;;-141.28;74.49;49066.41;5113564;28;20204;-77
2022/11/04 11:21:10;;;;;;;25.73;12.80;;;;;;;-141.28;79.49;49121.34;5114011;28;20201;-79
2022/11/04 11:23:42;;;;;;;22.10;12.63;;;;;;;-141.28;78.75;49064.44;5114222;28;20596;-75
2022/11/04 11:26:14;;;;;;;22.23;12.00;;;;;;;-141.28;72.28;49054.66;5113896;28;20662;-78
2022/11/04 11:28:41;;;;;;;23.60;12.17;;;;;;;-141.28;72.05;49062.50;5114077;28;20265;-76
2022/11/04 11:31:15;;;;;;;22.43;12.73;;;;;;;-141.28;71.17;49062.50;5115051;28;20251;-77
2022/11/04 11:33:50;;;;;;;20.03;10.80;;;;;;;-141.28;74.69;49074.25;5117378;28;20258;-78
2022/11/04 11:36:20;;;;;;;19.63;11.50;;;;;;;-141.28;72.72;49086.03;5120255;28;20233;-76
2022/11/04 11:39:02;;;;;;;20.20;10.83;;;;;;;-141.28;76.42;49541.25;5098563;28;20240;-76
2022/11/04 11:41:32;;;;;;;21.53;11.10;;;;;;;-141.28;79.57;49119.38;5112236;28;20207;-76
2022/11/04 11:44:02;;;;;;;22.17;11.17;;;;;;;-141.28;79.16;49131.16;5113591;28;20197;-78
2022/11/04 11:46:31;;;;;;;20.20;11.20;;;;;;;-141.28;77.45;49305.78;5113906;28;20202;-79